createdAt,value
2018-04-24T00:01:30.907Z,13.45
2018-04-24T00:02:30.912Z,13.47
2018-04-24T00:04:26.887Z,13.40
2018-04-24T00:05:26.870Z,13.45
2018-04-24T00:07:22.782Z,13.37
2018-04-24T00:08:23.304Z,13.36
2018-04-24T00:10:18.761Z,13.37
2018-04-24T00:11:19.245Z,13.37
2018-04-24T00:13:15.703Z,13.36
2018-04-24T00:14:15.190Z,13.31
2018-04-24T00:16:10.660Z,13.20
2018-04-24T00:17:10.616Z,13.20
2018-04-24T00:19:09.069Z,13.19
2018-04-24T00:20:08.557Z,13.20
2018-04-24T00:22:05.033Z,13.17
2018-04-24T00:23:04.500Z,13.02
2018-04-24T00:25:01.379Z,13.02
2018-04-24T00:26:00.957Z,13.06
2018-04-24T00:27:59.901Z,13.01
2018-04-24T00:28:58.891Z,13.03
2018-04-24T00:30:54.320Z,12.94
2018-04-24T00:31:54.336Z,12.89
2018-04-24T00:33:50.778Z,12.86
2018-04-24T00:34:50.266Z,12.84
2018-04-24T00:36:46.198Z,12.84
2018-04-24T00:37:46.200Z,12.86
2018-04-24T00:39:44.669Z,12.73
2018-04-24T00:40:44.289Z,12.70
2018-04-24T00:42:40.247Z,12.74
2018-04-24T00:43:40.223Z,12.69
2018-04-24T00:45:36.689Z,12.73
2018-04-24T00:46:36.115Z,12.63
2018-04-24T00:48:32.585Z,12.63
2018-04-24T00:49:32.068Z,12.59
2018-04-24T00:51:29.545Z,12.65
2018-04-24T00:52:28.025Z,12.59
2018-04-24T00:54:24.001Z,12.58
2018-04-24T00:55:24.483Z,12.56
2018-04-24T00:57:20.918Z,12.59
2018-04-24T00:58:20.920Z,12.58
2018-04-24T01:00:14.401Z,12.62
2018-04-24T01:01:14.376Z,12.51
2018-04-24T01:03:10.303Z,12.51
2018-04-24T01:04:10.294Z,12.38
2018-04-24T01:06:06.267Z,12.43
2018-04-24T01:07:06.229Z,12.44
2018-04-24T01:09:02.181Z,12.45
2018-04-24T01:10:02.157Z,12.47
2018-04-24T01:12:02.619Z,12.34
2018-04-24T01:13:00.251Z,12.33
2018-04-24T01:14:56.219Z,12.34
2018-04-24T01:15:56.190Z,12.36
2018-04-24T01:17:52.140Z,12.37
2018-04-24T01:18:52.139Z,12.23
2018-04-24T01:20:48.066Z,12.33
2018-04-24T01:21:48.578Z,12.23
2018-04-24T01:23:42.549Z,12.20
2018-04-24T01:24:42.525Z,12.19
2018-04-24T01:26:38.452Z,12.22
2018-04-24T01:27:38.445Z,12.23
2018-04-24T01:29:34.466Z,12.18
2018-04-24T01:30:34.910Z,12.19
2018-04-24T01:32:31.848Z,12.15
2018-04-24T01:33:30.336Z,12.19
2018-04-24T01:35:26.273Z,12.18
2018-04-24T01:36:26.268Z,12.16
2018-04-24T01:38:22.722Z,12.20
2018-04-24T01:39:22.204Z,12.23
2018-04-24T01:41:18.146Z,12.28
2018-04-24T01:42:18.141Z,12.23
2018-04-24T01:44:15.018Z,12.19
2018-04-24T01:45:15.581Z,12.15
2018-04-24T01:47:10.037Z,12.20
2018-04-24T01:48:10.044Z,12.25
2018-04-24T01:50:08.011Z,12.10
2018-04-24T01:51:08.495Z,12.13
2018-04-24T01:53:02.460Z,12.16
2018-04-24T01:54:02.418Z,12.04
2018-04-24T01:56:00.373Z,11.95
2018-04-24T01:56:58.888Z,12.04
2018-04-24T01:58:54.287Z,11.91
2018-04-24T01:59:54.266Z,12.05
2018-04-24T02:01:50.205Z,12.04
2018-04-24T02:02:50.210Z,12.07
2018-04-24T02:04:46.142Z,12.04
2018-04-24T02:05:46.133Z,12.07
2018-04-24T02:07:42.102Z,12.11
2018-04-24T02:08:42.072Z,12.04
2018-04-24T02:10:38.006Z,11.97
2018-04-24T02:11:38.532Z,11.91
2018-04-24T02:13:33.948Z,12.04
2018-04-24T02:14:33.944Z,12.10
2018-04-24T02:16:29.934Z,12.08
2018-04-24T02:17:30.400Z,12.03
2018-04-24T02:19:26.327Z,12.05
2018-04-24T02:20:25.806Z,12.01
2018-04-24T02:22:21.777Z,12.08
2018-04-24T02:23:22.287Z,12.08
2018-04-24T02:25:18.231Z,12.01
2018-04-24T02:26:17.727Z,11.94
2018-04-24T02:28:13.660Z,11.89
2018-04-24T02:29:13.675Z,11.97
2018-04-24T02:31:09.643Z,11.97
2018-04-24T02:32:09.624Z,11.88
2018-04-24T02:34:06.051Z,11.91
2018-04-24T02:35:05.550Z,11.88
2018-04-24T02:37:01.497Z,11.85
2018-04-24T02:38:01.486Z,11.85
2018-04-24T02:39:57.446Z,11.88
2018-04-24T02:40:57.428Z,11.81
2018-04-24T02:42:53.881Z,11.84
2018-04-24T02:43:53.868Z,11.79
2018-04-24T02:45:49.340Z,11.78
2018-04-24T02:46:49.803Z,11.76
2018-04-24T02:48:45.239Z,11.89
2018-04-24T02:49:45.201Z,11.81
2018-04-24T02:51:41.137Z,11.73
2018-04-24T02:52:41.666Z,11.61
2018-04-24T02:54:37.110Z,11.61
2018-04-24T02:55:37.064Z,11.56
2018-04-24T02:57:33.032Z,11.60
2018-04-24T02:58:32.992Z,11.57
2018-04-24T03:00:29.458Z,11.41
2018-04-24T03:01:28.956Z,11.41
2018-04-24T03:03:24.895Z,11.42
2018-04-24T03:04:25.381Z,11.34
2018-04-24T03:06:21.322Z,11.38
2018-04-24T03:07:21.317Z,11.43
2018-04-24T03:09:16.695Z,11.45
2018-04-24T03:10:16.696Z,11.46
2018-04-24T03:12:13.156Z,11.48
2018-04-24T03:13:12.731Z,11.46
2018-04-24T03:15:08.600Z,11.59
2018-04-24T03:16:08.567Z,11.51
2018-04-24T03:18:06.551Z,11.53
2018-04-24T03:19:06.514Z,11.60
2018-04-24T03:21:02.961Z,11.59
2018-04-24T03:22:02.973Z,11.59
2018-04-24T03:23:59.412Z,11.52
2018-04-24T03:24:58.382Z,11.51
2018-04-24T03:26:54.357Z,11.63
2018-04-24T03:27:54.305Z,11.53
2018-04-24T03:29:50.273Z,11.59
2018-04-24T03:30:50.262Z,11.53
2018-04-24T03:32:46.274Z,11.48
2018-04-24T03:33:46.735Z,11.42
2018-04-24T03:35:43.599Z,11.38
2018-04-24T03:36:42.133Z,11.30
2018-04-24T03:38:39.567Z,11.30
2018-04-24T03:39:39.573Z,11.30
2018-04-24T03:41:34.847Z,11.27
2018-04-24T03:42:34.838Z,11.28
2018-04-24T03:44:31.294Z,11.35
2018-04-24T03:45:30.783Z,11.41
2018-04-24T03:47:26.738Z,11.39
2018-04-24T03:48:26.734Z,11.35
2018-04-24T03:50:22.699Z,11.31
2018-04-24T03:51:23.207Z,11.34
2018-04-24T03:53:18.654Z,11.35
2018-04-24T03:54:18.617Z,11.27
2018-04-24T03:56:14.606Z,11.38
2018-04-24T03:57:14.603Z,11.34
2018-04-24T03:59:10.516Z,11.39
2018-04-24T04:00:10.488Z,11.34
2018-04-24T04:02:06.419Z,11.35
2018-04-24T04:03:06.434Z,11.39
2018-04-24T04:05:02.405Z,11.43
2018-04-24T04:06:02.898Z,11.35
2018-04-24T04:07:58.310Z,11.43
2018-04-24T04:08:58.312Z,11.35
2018-04-24T04:10:55.259Z,11.41
2018-04-24T04:11:54.263Z,11.46
2018-04-24T04:13:53.216Z,11.53
2018-04-24T04:14:52.726Z,11.43
2018-04-24T04:16:48.653Z,11.46
2018-04-24T04:17:48.128Z,11.41
2018-04-24T04:19:44.099Z,11.42
2018-04-24T04:20:44.584Z,11.41
2018-04-24T04:22:40.064Z,11.43
2018-04-24T04:23:41.014Z,11.43
2018-04-24T04:25:36.008Z,11.35
2018-04-24T04:26:35.928Z,11.39
2018-04-24T04:28:33.899Z,11.38
2018-04-24T04:29:33.872Z,11.43
2018-04-24T04:31:29.847Z,11.45
2018-04-24T04:32:29.796Z,11.45
2018-04-24T04:34:25.779Z,11.49
2018-04-24T04:35:25.792Z,11.45
2018-04-24T04:37:22.217Z,11.52
2018-04-24T04:38:22.640Z,11.49
2018-04-24T04:40:17.726Z,11.53
2018-04-24T04:41:17.703Z,11.57
2018-04-24T04:43:13.643Z,11.52
2018-04-24T04:44:13.643Z,11.56
2018-04-24T04:46:09.556Z,11.63
2018-04-24T04:47:09.567Z,11.63
2018-04-24T04:49:05.544Z,11.59
2018-04-24T04:50:05.514Z,11.64
2018-04-24T04:52:01.480Z,11.70
2018-04-24T04:53:01.965Z,11.68
2018-04-24T04:54:57.410Z,11.75
2018-04-24T04:55:57.379Z,11.78
2018-04-24T04:57:53.316Z,11.76
2018-04-24T04:58:53.315Z,11.78
2018-04-24T05:00:49.325Z,11.76
2018-04-24T05:01:50.195Z,11.71
2018-04-24T05:03:45.270Z,11.84
2018-04-24T05:04:45.274Z,11.91
2018-04-24T05:06:41.210Z,11.85
2018-04-24T05:07:41.191Z,11.91
2018-04-24T05:09:35.656Z,11.78
2018-04-24T05:10:35.633Z,11.89
2018-04-24T05:12:32.125Z,11.88
2018-04-24T05:13:31.600Z,11.91
2018-04-24T05:15:27.538Z,11.98
2018-04-24T05:16:27.478Z,12.00
2018-04-24T05:18:25.428Z,12.01
2018-04-24T05:19:23.939Z,12.01
2018-04-24T05:21:19.337Z,12.11
2018-04-24T05:22:19.868Z,12.15
2018-04-24T05:24:14.794Z,12.23
2018-04-24T05:25:13.812Z,12.19
2018-04-24T05:27:10.779Z,12.22
2018-04-24T05:28:09.769Z,12.26
2018-04-24T05:30:07.237Z,12.34
2018-04-24T05:31:05.725Z,12.29
2018-04-24T05:33:02.670Z,12.28
2018-04-24T05:34:01.692Z,12.36
2018-04-24T05:35:57.654Z,12.45
2018-04-24T05:36:57.597Z,12.41
2018-04-24T05:38:53.574Z,12.55
2018-04-24T05:39:54.057Z,12.53
2018-04-24T05:41:49.504Z,12.51
2018-04-24T05:42:50.005Z,12.61
2018-04-24T05:44:45.437Z,12.56
2018-04-24T05:45:45.426Z,12.65
2018-04-24T05:47:43.907Z,12.73
2018-04-24T05:48:43.899Z,12.81
2018-04-24T05:50:39.315Z,12.74
2018-04-24T05:51:39.301Z,12.76
2018-04-24T05:53:36.255Z,12.84
2018-04-24T05:54:35.271Z,12.81
2018-04-24T05:56:31.738Z,12.94
2018-04-24T05:57:31.205Z,12.89
2018-04-24T05:59:27.175Z,12.99
2018-04-24T06:00:27.147Z,13.01
2018-04-24T06:02:23.116Z,13.09
2018-04-24T06:03:23.614Z,13.24
2018-04-24T06:05:19.585Z,13.27
2018-04-24T06:06:19.561Z,13.29
2018-04-24T06:08:15.035Z,13.45
2018-04-24T06:09:14.959Z,13.54
2018-04-24T06:11:11.487Z,13.47
2018-04-24T06:12:10.910Z,13.50
2018-04-24T06:14:08.405Z,13.58
2018-04-24T06:15:07.434Z,13.58
2018-04-24T06:17:03.333Z,13.48
2018-04-24T06:18:03.318Z,13.48
2018-04-24T06:19:58.786Z,13.31
2018-04-24T06:20:59.270Z,13.24
2018-04-24T06:22:55.213Z,13.25
2018-04-24T06:23:54.697Z,13.29
2018-04-24T06:25:51.657Z,13.24
2018-04-24T06:26:51.154Z,13.36
2018-04-24T06:28:46.675Z,13.42
2018-04-24T06:29:47.591Z,13.48
2018-04-24T06:31:43.047Z,13.60
2018-04-24T06:32:42.529Z,13.58
2018-04-24T06:34:38.493Z,13.70
2018-04-24T06:35:39.414Z,13.69
2018-04-24T06:37:34.933Z,13.58
2018-04-24T06:38:34.438Z,13.63
2018-04-24T06:40:30.357Z,13.58
2018-04-24T06:41:30.883Z,13.54
2018-04-24T06:43:27.313Z,13.65
2018-04-24T06:44:26.801Z,13.75
2018-04-24T06:46:22.182Z,13.70
2018-04-24T06:47:22.183Z,13.68
2018-04-24T06:49:18.637Z,13.78
2018-04-24T06:50:18.153Z,13.73
2018-04-24T06:52:15.103Z,13.91
2018-04-24T06:53:14.096Z,13.97
2018-04-24T06:55:10.542Z,14.05
2018-04-24T06:56:10.541Z,14.03
2018-04-24T06:58:07.481Z,13.99
2018-04-24T06:59:05.954Z,13.97
2018-04-24T07:01:02.915Z,14.16
2018-04-24T07:02:01.906Z,14.24
2018-04-24T07:03:58.362Z,14.31
2018-04-24T07:04:57.832Z,14.27
2018-04-24T07:06:54.293Z,14.38
2018-04-24T07:07:53.784Z,14.31
2018-04-24T07:09:49.752Z,14.48
2018-04-24T07:10:50.233Z,14.44
2018-04-24T07:12:46.674Z,14.57
2018-04-24T07:13:45.653Z,14.63
2018-04-24T07:15:42.109Z,14.61
2018-04-24T07:16:42.102Z,14.74
2018-04-24T07:18:37.495Z,14.75
2018-04-24T07:19:37.517Z,14.69
2018-04-24T07:21:33.441Z,14.79
2018-04-24T07:22:33.461Z,14.77
2018-04-24T07:24:30.897Z,14.86
2018-04-24T07:25:29.388Z,15.01
2018-04-24T07:27:25.348Z,15.19
2018-04-24T07:28:25.867Z,15.18
2018-04-24T07:30:22.816Z,15.47
2018-04-24T07:31:22.294Z,15.45
2018-04-24T07:33:19.249Z,15.49
2018-04-24T07:34:18.229Z,15.58
2018-04-24T07:36:14.204Z,15.78
2018-04-24T07:37:14.133Z,15.81
2018-04-24T07:39:10.090Z,15.80
2018-04-24T07:40:10.605Z,15.83
2018-04-24T07:42:08.148Z,15.81
2018-04-24T07:43:09.030Z,15.80
2018-04-24T07:45:02.640Z,15.65
2018-04-24T07:46:02.656Z,15.71
2018-04-24T07:48:00.110Z,15.86
2018-04-24T07:48:58.640Z,15.86
2018-04-24T07:50:56.091Z,15.88
2018-04-24T07:51:55.433Z,15.95
2018-04-24T07:53:51.899Z,15.77
2018-04-24T07:54:51.380Z,15.65
2018-04-24T07:56:48.337Z,15.62
2018-04-24T07:57:47.317Z,15.56
2018-04-24T07:59:41.805Z,15.68
2018-04-24T08:00:41.782Z,15.62
2018-04-24T08:02:37.717Z,15.45
2018-04-24T08:03:37.718Z,15.44
2018-04-24T08:05:33.688Z,15.49
2018-04-24T08:06:33.645Z,15.47
2018-04-24T08:08:29.561Z,15.51
2018-04-24T08:09:29.570Z,15.45
2018-04-24T08:11:26.035Z,15.53
2018-04-24T08:12:25.509Z,15.62
2018-04-24T08:14:21.978Z,15.65
2018-04-24T08:15:21.451Z,15.71
2018-04-24T08:17:19.425Z,15.71
2018-04-24T08:18:17.412Z,15.71
2018-04-24T08:20:13.918Z,15.80
2018-04-24T08:21:13.346Z,15.80
2018-04-24T08:23:09.317Z,15.83
2018-04-24T08:24:09.301Z,15.86
2018-04-24T08:26:05.261Z,15.84
2018-04-24T08:27:05.217Z,15.89
2018-04-24T08:29:01.163Z,15.84
2018-04-24T08:30:01.176Z,15.74
2018-04-24T08:31:57.144Z,15.62
2018-04-24T08:32:57.625Z,15.63
2018-04-24T08:34:53.113Z,15.58
2018-04-24T08:35:53.112Z,15.62
2018-04-24T08:37:50.073Z,15.74
2018-04-24T08:38:49.070Z,15.70
2018-04-24T08:40:45.501Z,15.63
2018-04-24T08:41:44.989Z,15.62
2018-04-24T08:43:43.939Z,15.58
2018-04-24T08:44:43.440Z,15.60
2018-04-24T08:46:39.409Z,15.74
2018-04-24T08:47:38.900Z,15.75
2018-04-24T08:49:34.887Z,15.63
2018-04-24T08:50:35.931Z,15.70
2018-04-24T08:52:31.360Z,15.70
2018-04-24T08:53:30.822Z,15.58
2018-04-24T08:55:26.802Z,15.63
2018-04-24T08:56:26.849Z,15.68
2018-04-24T08:58:22.720Z,15.65
2018-04-24T08:59:22.702Z,15.77
2018-04-24T09:01:17.172Z,15.67
2018-04-24T09:02:18.151Z,15.73
2018-04-24T09:04:12.133Z,15.80
2018-04-24T09:05:11.629Z,15.78
2018-04-24T09:07:06.099Z,15.84
2018-04-24T09:08:06.095Z,15.93
2018-04-24T09:10:02.045Z,15.86
2018-04-24T09:11:02.031Z,15.80
2018-04-24T09:12:58.483Z,15.77
2018-04-24T09:13:56.485Z,15.74
2018-04-24T09:15:52.392Z,15.62
2018-04-24T09:16:52.381Z,15.55
2018-04-24T09:18:48.837Z,15.49
2018-04-24T09:19:48.873Z,15.52
2018-04-24T09:21:49.352Z,15.67
2018-04-24T09:22:48.876Z,15.71
2018-04-24T09:24:49.273Z,15.63
2018-04-24T09:25:49.287Z,15.58
2018-04-24T09:27:50.715Z,15.56
2018-04-24T09:28:49.810Z,15.51
2018-04-24T09:30:47.693Z,15.59
2018-04-24T09:31:47.663Z,15.68
2018-04-24T09:33:47.737Z,15.71
2018-04-24T09:34:45.736Z,15.73
2018-04-24T09:36:41.713Z,15.56
2018-04-24T09:37:41.711Z,15.47
2018-04-24T09:39:39.694Z,15.34
2018-04-24T09:40:39.650Z,15.30
2018-04-24T09:42:40.169Z,15.35
2018-04-24T09:43:40.087Z,15.27
2018-04-24T09:45:40.537Z,15.20
2018-04-24T09:46:41.092Z,15.25
2018-04-24T09:48:40.955Z,15.23
2018-04-24T09:49:40.995Z,15.08
2018-04-24T09:51:39.411Z,15.10
2018-04-24T09:52:38.883Z,15.10
2018-04-24T09:54:39.363Z,15.10
2018-04-24T09:55:39.378Z,15.12
2018-04-24T09:57:39.792Z,15.15
2018-04-24T09:58:37.427Z,15.12
2018-04-24T10:00:37.844Z,15.10
2018-04-24T10:01:38.256Z,15.08
2018-04-24T10:03:36.223Z,15.04
2018-04-24T10:04:35.691Z,15.23
2018-04-24T10:06:36.201Z,15.31
2018-04-24T10:07:36.157Z,15.34
2018-04-24T10:09:36.113Z,15.49
2018-04-24T10:10:35.118Z,15.53
2018-04-24T10:12:33.227Z,15.70
2018-04-24T10:13:34.215Z,15.70
2018-04-24T10:15:33.394Z,15.53
2018-04-24T10:16:32.794Z,15.56
2018-04-24T10:18:32.245Z,15.56
2018-04-24T10:19:30.872Z,15.56
2018-04-24T10:21:31.318Z,15.80
2018-04-24T10:22:31.341Z,15.96
2018-04-24T10:24:30.792Z,16.13
2018-04-24T10:25:29.826Z,16.10
2018-04-24T10:27:27.370Z,16.11
2018-04-24T10:28:28.167Z,16.18
2018-04-24T10:30:25.832Z,16.26
2018-04-24T10:31:26.333Z,16.37
2018-04-24T10:33:26.456Z,16.47
2018-04-24T10:34:26.445Z,16.49
2018-04-24T10:36:24.400Z,16.44
2018-04-24T10:37:22.429Z,16.48
2018-04-24T10:39:17.849Z,16.63
2018-04-24T10:40:18.351Z,16.62
2018-04-24T10:42:18.341Z,16.42
2018-04-24T10:43:19.429Z,16.42
2018-04-24T10:45:18.775Z,16.40
2018-04-24T10:46:19.244Z,16.51
2018-04-24T10:48:18.696Z,16.44
2018-04-24T10:49:17.693Z,16.45
2018-04-24T10:51:13.685Z,16.65
2018-04-24T10:52:14.169Z,16.76
2018-04-24T10:54:14.144Z,16.94
2018-04-24T10:55:14.134Z,16.94
2018-04-24T10:57:14.591Z,17.12
2018-04-24T10:58:14.595Z,17.06
2018-04-24T11:00:15.622Z,17.24
2018-04-24T11:01:15.043Z,17.24
2018-04-24T11:03:15.964Z,17.39
2018-04-24T11:04:15.470Z,17.45
2018-04-24T11:06:15.929Z,17.80
2018-04-24T11:07:16.025Z,17.95
2018-04-24T11:09:17.795Z,17.96
2018-04-24T11:10:16.390Z,17.95
2018-04-24T11:12:16.875Z,17.92
2018-04-24T11:13:16.907Z,18.02
2018-04-24T11:15:17.360Z,17.90
2018-04-24T11:16:17.290Z,17.94
2018-04-24T11:18:17.737Z,18.21
2018-04-24T11:19:17.734Z,18.35
2018-04-24T11:21:20.801Z,18.53
2018-04-24T11:22:20.218Z,18.45
2018-04-24T11:24:17.307Z,18.41
2018-04-24T11:25:17.313Z,18.34
2018-04-24T11:27:19.294Z,18.63
2018-04-24T11:28:18.774Z,18.61
2018-04-24T11:30:19.754Z,18.65
2018-04-24T11:31:18.321Z,18.75
2018-04-24T11:33:20.208Z,18.49
2018-04-24T11:34:19.778Z,18.66
2018-04-24T11:36:19.371Z,18.47
2018-04-24T11:37:20.276Z,18.61
2018-04-24T11:39:18.772Z,18.81
2018-04-24T11:40:18.311Z,18.89
2018-04-24T11:42:15.391Z,19.02
2018-04-24T11:43:15.384Z,19.17
2018-04-24T11:45:16.013Z,19.32
2018-04-24T11:46:15.885Z,19.53
2018-04-24T11:48:16.365Z,19.63
2018-04-24T11:49:17.806Z,19.64
2018-04-24T11:51:17.317Z,19.50
2018-04-24T11:52:17.711Z,19.12
2018-04-24T11:54:20.866Z,19.10
2018-04-24T11:55:20.745Z,19.19
2018-04-24T11:57:17.246Z,19.68
2018-04-24T11:58:17.202Z,19.60
2018-04-24T12:00:13.676Z,19.13
2018-04-24T12:01:14.672Z,19.16
2018-04-24T12:03:14.115Z,19.19
2018-04-24T12:04:14.147Z,19.15
2018-04-24T12:06:12.097Z,19.05
2018-04-24T12:07:12.577Z,19.12
2018-04-24T12:09:12.623Z,19.32
2018-04-24T12:10:13.063Z,19.17
2018-04-24T12:12:13.503Z,19.02
2018-04-24T12:13:13.628Z,19.12
2018-04-24T12:15:15.442Z,19.32
2018-04-24T12:16:15.464Z,19.37
2018-04-24T12:18:15.002Z,19.25
2018-04-24T12:19:15.482Z,19.38
2018-04-24T12:21:16.491Z,19.55
2018-04-24T12:22:16.396Z,19.64
2018-04-24T12:24:17.879Z,19.47
2018-04-24T12:25:17.870Z,19.30
2018-04-24T12:27:18.363Z,19.09
2018-04-24T12:28:18.861Z,19.00
2018-04-24T12:30:20.325Z,18.89
2018-04-24T12:31:19.329Z,18.99
2018-04-24T12:33:19.357Z,18.96
2018-04-24T12:34:19.732Z,18.99
2018-04-24T12:36:20.181Z,19.10
2018-04-24T12:37:19.690Z,19.05
2018-04-24T12:39:20.123Z,19.00
2018-04-24T12:40:20.184Z,18.90
2018-04-24T12:42:21.759Z,18.76
2018-04-24T12:43:20.697Z,18.68
2018-04-24T12:45:22.570Z,18.57
2018-04-24T12:46:22.052Z,18.59
2018-04-24T12:48:22.098Z,18.75
2018-04-24T12:49:22.629Z,18.74
2018-04-24T12:51:22.563Z,18.82
2018-04-24T12:52:22.629Z,18.81
2018-04-24T12:54:23.491Z,18.84
2018-04-24T12:55:22.502Z,18.87
2018-04-24T12:57:18.419Z,18.61
2018-04-24T12:58:18.463Z,18.63
2018-04-24T13:00:16.395Z,18.72
2018-04-24T13:01:17.944Z,18.60
2018-04-24T13:03:19.141Z,18.66
2018-04-24T13:04:19.490Z,18.78
2018-04-24T13:06:17.041Z,18.78
2018-04-24T13:07:17.892Z,18.72
2018-04-24T13:09:17.907Z,18.61
2018-04-24T13:10:17.436Z,18.63
2018-04-24T13:12:17.962Z,18.39
2018-04-24T13:13:18.906Z,18.41
2018-04-24T13:15:16.909Z,18.16
2018-04-24T13:16:16.932Z,18.14
2018-04-24T13:18:14.799Z,17.95
2018-04-24T13:19:16.321Z,17.84
2018-04-24T13:21:15.310Z,17.65
2018-04-24T13:22:15.327Z,17.76
2018-04-24T13:24:16.262Z,17.86
2018-04-24T13:25:15.819Z,17.95
2018-04-24T13:27:16.282Z,18.11
2018-04-24T13:28:16.201Z,18.34
2018-04-24T13:30:14.171Z,18.51
2018-04-24T13:31:15.691Z,18.65
2018-04-24T13:33:11.110Z,18.86
2018-04-24T13:34:11.621Z,19.02
2018-04-24T13:36:12.565Z,19.13
2018-04-24T13:37:11.676Z,19.07
2018-04-24T13:39:10.048Z,18.96
2018-04-24T13:40:09.705Z,18.99
2018-04-24T13:42:11.145Z,19.00
2018-04-24T13:43:12.105Z,19.02
2018-04-24T13:45:11.684Z,18.93
2018-04-24T13:46:11.637Z,18.97
2018-04-24T13:48:11.601Z,18.87
2018-04-24T13:49:11.081Z,18.79
2018-04-24T13:51:11.533Z,18.71
2018-04-24T13:52:11.515Z,18.76
2018-04-24T13:54:12.474Z,18.81
2018-04-24T13:55:12.536Z,18.74
2018-04-24T13:57:13.444Z,18.69
2018-04-24T13:58:12.932Z,18.65
2018-04-24T14:00:08.977Z,18.78
2018-04-24T14:01:08.945Z,18.63
2018-04-24T14:03:10.365Z,18.45
2018-04-24T14:04:08.852Z,18.49
2018-04-24T14:06:10.851Z,18.63
2018-04-24T14:07:09.322Z,18.68
2018-04-24T14:09:10.765Z,18.86
2018-04-24T14:10:09.803Z,19.02
2018-04-24T14:12:11.319Z,18.74
2018-04-24T14:13:10.262Z,18.75
2018-04-24T14:15:12.678Z,18.65
2018-04-24T14:16:10.805Z,18.66
2018-04-24T14:18:11.183Z,18.69
2018-04-24T14:19:11.140Z,18.66
2018-04-24T14:21:09.099Z,18.68
2018-04-24T14:22:07.125Z,18.63
2018-04-24T14:24:03.044Z,18.86
2018-04-24T14:25:03.049Z,18.96
2018-04-24T14:27:02.507Z,18.97
2018-04-24T14:28:01.177Z,18.87
2018-04-24T14:29:58.147Z,18.84
2018-04-24T14:30:57.109Z,18.84
2018-04-24T14:32:54.107Z,18.82
2018-04-24T14:33:53.080Z,18.81
2018-04-24T14:35:53.527Z,18.84
2018-04-24T14:36:54.036Z,18.81
2018-04-24T14:38:52.984Z,18.86
2018-04-24T14:39:51.633Z,18.97
2018-04-24T14:41:51.067Z,19.02
2018-04-24T14:42:50.103Z,19.07
2018-04-24T14:44:47.622Z,19.10
2018-04-24T14:45:47.697Z,19.10
2018-04-24T14:47:48.107Z,18.99
2018-04-24T14:48:48.173Z,18.75
2018-04-24T14:50:46.103Z,18.72
2018-04-24T14:51:46.129Z,18.71
2018-04-24T14:53:42.024Z,18.71
2018-04-24T14:54:42.595Z,18.65
2018-04-24T14:56:40.101Z,18.61
2018-04-24T14:57:42.017Z,18.60
2018-04-24T14:59:41.112Z,18.72
2018-04-24T15:00:40.550Z,18.72
2018-04-24T15:02:37.537Z,18.78
2018-04-24T15:03:37.509Z,18.75
2018-04-24T15:05:33.675Z,18.75
2018-04-24T15:06:32.640Z,18.74
2018-04-24T15:08:31.594Z,18.87
2018-04-24T15:09:30.571Z,18.84
2018-04-24T15:11:29.072Z,18.87
2018-04-24T15:12:28.540Z,18.91
2018-04-24T15:14:24.477Z,18.93
2018-04-24T15:15:24.485Z,18.89
2018-04-24T15:17:21.372Z,18.90
2018-04-24T15:18:20.943Z,19.00
2018-04-24T15:20:19.406Z,19.02
2018-04-24T15:21:18.551Z,19.06
2018-04-24T15:23:15.528Z,19.19
2018-04-24T15:24:15.504Z,19.24
2018-04-24T15:26:11.988Z,19.25
2018-04-24T15:27:11.897Z,19.30
2018-04-24T15:29:06.394Z,19.12
2018-04-24T15:30:07.907Z,19.23
2018-04-24T15:32:02.360Z,19.31
2018-04-24T15:33:02.348Z,19.24
2018-04-24T15:34:58.371Z,19.27
2018-04-24T15:35:59.330Z,19.15
2018-04-24T15:38:00.803Z,19.16
2018-04-24T15:38:59.776Z,19.24
2018-04-24T15:41:00.247Z,19.31
2018-04-24T15:42:00.234Z,19.30
2018-04-24T15:44:00.741Z,19.31
2018-04-24T15:45:00.825Z,19.32
2018-04-24T15:47:01.235Z,19.31
2018-04-24T15:48:01.206Z,19.38
2018-04-24T15:49:59.696Z,19.42
2018-04-24T15:50:59.281Z,19.34
2018-04-24T15:53:01.246Z,19.16
2018-04-24T15:53:59.774Z,18.99
2018-04-24T15:55:57.691Z,19.15
2018-04-24T15:56:57.682Z,19.13
2018-04-24T15:58:56.115Z,19.17
2018-04-24T15:59:55.611Z,19.28
2018-04-24T16:01:53.698Z,19.24
2018-04-24T16:02:54.667Z,19.24
2018-04-24T16:04:54.164Z,19.19
2018-04-24T16:05:54.170Z,19.31
2018-04-24T16:07:55.128Z,19.31
2018-04-24T16:08:55.150Z,19.16
2018-04-24T16:10:53.598Z,19.09
2018-04-24T16:11:52.706Z,19.16
2018-04-24T16:13:48.808Z,19.10
2018-04-24T16:14:49.699Z,19.09
2018-04-24T16:16:47.085Z,19.10
2018-04-24T16:17:47.095Z,19.16
2018-04-24T16:19:45.186Z,19.16
2018-04-24T16:20:45.193Z,19.19
2018-04-24T16:22:43.105Z,19.23
2018-04-24T16:23:43.627Z,19.25
2018-04-24T16:25:42.138Z,19.15
2018-04-24T16:26:41.204Z,19.16
2018-04-24T16:28:41.162Z,18.93
2018-04-24T16:29:40.307Z,19.05
2018-04-24T16:31:35.743Z,19.12
2018-04-24T16:32:35.236Z,19.09
2018-04-24T16:34:35.198Z,19.10
2018-04-24T16:35:33.329Z,19.10
2018-04-24T16:37:31.305Z,19.10
2018-04-24T16:38:31.285Z,19.00
2018-04-24T16:40:27.218Z,19.00
2018-04-24T16:41:27.228Z,18.94
2018-04-24T16:43:23.241Z,18.87
2018-04-24T16:45:42.153Z,18.74
2018-04-24T16:46:42.155Z,18.79
2018-04-24T16:48:39.695Z,18.66
2018-04-24T16:49:39.726Z,18.60
2018-04-24T16:51:37.680Z,18.69
2018-04-24T16:52:37.299Z,18.71
2018-04-24T16:54:34.275Z,18.78
2018-04-24T16:55:33.291Z,18.65
2018-04-24T16:57:29.270Z,18.61
2018-04-24T16:58:29.735Z,18.72
2018-04-24T17:00:29.704Z,18.76
2018-04-24T17:01:27.353Z,18.81
2018-04-24T17:03:25.869Z,18.79
2018-04-24T17:04:26.282Z,18.74
2018-04-24T17:06:23.505Z,18.96
2018-04-24T17:07:23.382Z,18.93
2018-04-24T17:09:22.370Z,18.89
2018-04-24T17:10:21.337Z,19.09
2018-04-24T17:12:19.455Z,19.12
2018-04-24T17:13:19.421Z,19.24
2018-04-24T17:15:18.397Z,19.30
2018-04-24T17:16:18.388Z,19.20
2018-04-24T17:18:15.533Z,19.15
2018-04-24T17:19:15.452Z,19.05
2018-04-24T17:21:15.850Z,19.13
2018-04-24T17:22:16.857Z,19.15
2018-04-24T17:24:13.836Z,19.31
2018-04-24T17:25:15.325Z,19.32
2018-04-24T17:27:14.427Z,19.20
2018-04-24T17:28:14.262Z,19.28
2018-04-24T17:30:17.750Z,19.20
2018-04-24T17:31:14.731Z,19.07
2018-04-24T17:33:12.821Z,18.82
2018-04-24T17:34:12.856Z,18.74
2018-04-24T17:36:11.288Z,18.60
2018-04-24T17:37:11.396Z,18.65
2018-04-24T17:39:12.219Z,18.47
2018-04-24T17:40:11.279Z,18.50
2018-04-24T17:42:11.735Z,18.51
2018-04-24T17:43:11.771Z,18.57
2018-04-24T17:45:12.235Z,18.44
2018-04-24T17:46:12.197Z,18.39
2018-04-24T17:48:13.166Z,18.39
2018-04-24T17:49:13.129Z,18.34
2018-04-24T17:51:13.100Z,18.26
2018-04-24T17:52:13.591Z,18.29
2018-04-24T17:54:11.558Z,18.19
2018-04-24T17:55:12.074Z,18.32
2018-04-24T17:57:11.723Z,18.16
2018-04-24T17:58:12.667Z,18.14
2018-04-24T18:00:12.134Z,18.16
2018-04-24T18:01:12.085Z,17.96
2018-04-24T18:03:12.585Z,17.99
2018-04-24T18:04:13.057Z,17.95
2018-04-24T18:06:14.512Z,17.88
2018-04-24T18:07:13.709Z,17.87
2018-04-24T18:09:13.151Z,17.73
2018-04-24T18:10:12.716Z,17.69
2018-04-24T18:12:13.225Z,17.66
2018-04-24T18:13:12.726Z,17.60
2018-04-24T18:15:18.289Z,17.55
2018-04-24T18:16:18.246Z,17.54
2018-04-24T18:18:14.680Z,17.50
2018-04-24T18:19:14.173Z,17.47
2018-04-24T18:21:10.132Z,17.42
2018-04-24T18:22:10.136Z,17.40
2018-04-24T18:24:08.114Z,17.40
2018-04-24T18:25:08.595Z,17.35
2018-04-24T18:27:07.023Z,17.36
2018-04-24T18:28:06.017Z,17.35
2018-04-24T18:30:05.465Z,17.22
2018-04-24T18:31:04.120Z,17.24
2018-04-24T18:33:04.644Z,17.22
2018-04-24T18:34:05.095Z,17.27
2018-04-24T18:36:05.558Z,17.20
2018-04-24T18:37:05.559Z,17.18
2018-04-24T18:39:03.048Z,17.15
2018-04-24T18:40:04.403Z,17.18
2018-04-24T18:42:03.437Z,17.12
2018-04-24T18:43:03.457Z,17.05
2018-04-24T18:45:03.957Z,16.95
2018-04-24T18:46:03.858Z,16.92
2018-04-24T18:48:04.461Z,16.99
2018-04-24T18:49:04.840Z,16.95
2018-04-24T18:51:05.913Z,16.91
2018-04-24T18:52:04.835Z,16.87
2018-04-24T18:54:02.783Z,16.87
2018-04-24T18:55:02.763Z,16.88
2018-04-24T18:57:00.802Z,16.90
2018-04-24T18:58:00.790Z,16.90
2018-04-24T19:00:01.255Z,16.94
2018-04-24T19:01:01.251Z,16.95
2018-04-24T19:03:01.772Z,16.90
2018-04-24T19:04:01.737Z,17.05